West Jefferson, NC (28694)

2:15 PM EDT on April 30, 2017 (GMT -0400)
Blue Ridge Vista Cabin | | Change Station

Elev 3409 ft 36.28 °N, 81.42 °W | Updated 4 minutes ago

Overcast
Overcast
71.0 °F
Feels Like 71.0 °F
N
4.8
Wind Variable Wind from SSE
Gusts 9.8 mph

Today
High -- | Low -- °F
--% Chance of Precip.
Yesterday
High -- | Low -- °F
Precip. -- in
Pressure 30.23 in
Visibility 10.0 miles
Clouds Scattered Clouds 3300 ft
Mostly Cloudy 4200 ft
Overcast 6000 ft
Dew Point Not available.
Humidity Not available.
Rainfall 0.00 in
Snow Depth Not available.
6:33 AM 8:13 PM
Waxing Crescent, 24% visible
METAR KGEV 301805Z AUTO 16004KT 10SM SCT033 BKN042 OVC060 22/15 A3023 RMK AO2 T02190146
Pressure 30.23 in
Visibility 10.0 miles
Clouds Scattered Clouds 3300 ft
Mostly Cloudy 4200 ft
Overcast 6000 ft
Dew Point Not available.
Humidity Not available.
Rainfall 0.00 in
Snow Depth Not available.
6:33 AM 8:13 PM
Waxing Crescent, 24% visible
METAR KGEV 301805Z AUTO 16004KT 10SM SCT033 BKN042 OVC060 22/15 A3023 RMK AO2 T02190146

Get Severe Weather Alerts

Thanks for signing up!

Be on the lookout for a verification email in your inbox.

You'll start receiving the daily forecast at 8 AM.

×

10-Day Weather Forecast

Almanac

Astronomy

Apr. 30, 2017 Rise Set
Actual Time
Civil Twilight
Nautical Twilight
Astronomical Twilight
Moon
Length of Visible Light
Length of Day
Tomorrow will be .
, % of the Moon is Illuminated

Today's Extremes

State Highs State Lows

Community

WunderPhotos

WunderBlog® & News

Nearby

Air Quality

  Air Quality AQ Index Pollutant
Not available.

Snow Depth

Station Depth Elevation

Earthquake Activity

City Distance Mag. Time & Date
Minimum magnitude displayed is 2.5.

Coastal Water Temperatures

Place Temperature

Stations

Nearby Weather Stations

Station Location Temp. Windchill Dew Point Humidity Wind Precip. Elev Updated Type
                   

Watches & Warnings

There are currently no watches in effect.